sensor_id;sensor_type;location;lat;lon;timestamp;pressure;altitude;pressure_sealevel;temperature;humidity
75008;BME280;63554;48.940;12.050;2023-08-08T00:03:52;97542.31;;;8.91;100.00
75008;BME280;63554;48.940;12.050;2023-08-08T00:07:56;97543.34;;;8.90;100.00
75008;BME280;63554;48.940;12.050;2023-08-08T00:11:59;97532.53;;;8.77;100.00
75008;BME280;63554;48.940;12.050;2023-08-08T00:16:02;97537.06;;;8.70;100.00
75008;BME280;63554;48.940;12.050;2023-08-08T00:20:06;97525.88;;;8.66;100.00
75008;BME280;63554;48.940;12.050;2023-08-08T00:24:11;97530.66;;;8.71;100.00
75008;BME280;63554;48.940;12.050;2023-08-08T00:28:13;97533.78;;;8.75;100.00
75008;BME280;63554;48.940;12.050;2023-08-08T00:32:16;97531.06;;;8.75;100.00
75008;BME280;63554;48.940;12.050;2023-08-08T00:36:19;97528.78;;;8.71;100.00
75008;BME280;63554;48.940;12.050;2023-08-08T00:40:23;97531.06;;;8.75;100.00
75008;BME280;63554;48.940;12.050;2023-08-08T00:44:26;97527.53;;;8.74;100.00
75008;BME280;63554;48.940;12.050;2023-08-08T00:48:28;97525.69;;;8.81;100.00
75008;BME280;63554;48.940;12.050;2023-08-08T00:52:31;97518.22;;;8.83;100.00
75008;BME280;63554;48.940;12.050;2023-08-08T00:56:36;97520.50;;;8.86;100.00
75008;BME280;63554;48.940;12.050;2023-08-08T01:00:38;97515.72;;;8.82;100.00
75008;BME280;63554;48.940;12.050;2023-08-08T01:04:41;97525.06;;;8.86;100.00
75008;BME280;63554;48.940;12.050;2023-08-08T01:08:47;97529.63;;;8.85;100.00
75008;BME280;63554;48.940;12.050;2023-08-08T01:12:56;97526.94;;;8.85;100.00
75008;BME280;63554;48.940;12.050;2023-08-08T01:17:02;97517.81;;;8.86;100.00
75008;BME280;63554;48.940;12.050;2023-08-08T01:21:06;97520.09;;;8.89;100.00
75008;BME280;63554;48.940;12.050;2023-08-08T01:25:13;97513.47;;;8.92;100.00
75008;BME280;63554;48.940;12.050;2023-08-08T01:29:15;97519.91;;;8.98;100.00
75008;BME280;63554;48.940;12.050;2023-08-08T01:33:18;97521.75;;;8.97;100.00
75008;BME280;63554;48.940;12.050;2023-08-08T01:37:26;97518.03;;;9.05;100.00
75008;BME280;63554;48.940;12.050;2023-08-08T01:41:33;97508.28;;;9.04;100.00
75008;BME280;63554;48.940;12.050;2023-08-08T01:45:36;97513.69;;;9.10;100.00
75008;BME280;63554;48.940;12.050;2023-08-08T01:49:39;97511.41;;;9.14;100.00
75008;BME280;63554;48.940;12.050;2023-08-08T01:53:42;97498.31;;;9.11;100.00
75008;BME280;63554;48.940;12.050;2023-08-08T01:57:46;97498.72;;;9.15;100.00
75008;BME280;63554;48.940;12.050;2023-08-08T02:01:49;97495.63;;;9.18;100.00
75008;BME280;63554;48.940;12.050;2023-08-08T02:05:52;97492.31;;;9.22;100.00
75008;BME280;63554;48.940;12.050;2023-08-08T02:09:54;97504.75;;;9.30;100.00
75008;BME280;63554;48.940;12.050;2023-08-08T02:13:59;97504.56;;;9.32;100.00
75008;BME280;63554;48.940;12.050;2023-08-08T02:18:01;97501.88;;;9.32;100.00
75008;BME280;63554;48.940;12.050;2023-08-08T02:22:05;97500.59;;;9.34;100.00
75008;BME280;63554;48.940;12.050;2023-08-08T02:26:08;97500.59;;;9.34;100.00
75008;BME280;63554;48.940;12.050;2023-08-08T02:30:13;97496.03;;;9.35;100.00
75008;BME280;63554;48.940;12.050;2023-08-08T02:34:16;97500.59;;;9.41;100.00
75008;BME280;63554;48.940;12.050;2023-08-08T02:38:19;97492.72;;;9.46;100.00
75008;BME280;63554;48.940;12.050;2023-08-08T02:42:21;97505.81;;;9.49;100.00
75008;BME280;63554;48.940;12.050;2023-08-08T02:46:25;97490.00;;;9.46;100.00
75008;BME280;63554;48.940;12.050;2023-08-08T02:50:28;97483.13;;;9.50;100.00
75008;BME280;63554;48.940;12.050;2023-08-08T02:54:31;97480.03;;;9.53;100.00
75008;BME280;63554;48.940;12.050;2023-08-08T02:58:33;97478.78;;;9.56;100.00
75008;BME280;63554;48.940;12.050;2023-08-08T03:02:37;97472.09;;;9.58;100.00
75008;BME280;63554;48.940;12.050;2023-08-08T03:06:43;97474.59;;;9.60;100.00
75008;BME280;63554;48.940;12.050;2023-08-08T03:10:45;97472.34;;;9.57;100.00
75008;BME280;63554;48.940;12.050;2023-08-08T03:14:50;97477.75;;;9.57;100.00
75008;BME280;63554;48.940;12.050;2023-08-08T03:18:55;97485.84;;;9.57;100.00
75008;BME280;63554;48.940;12.050;2023-08-08T03:23:00;97485.63;;;9.58;100.00
75008;BME280;63554;48.940;12.050;2023-08-08T03:27:03;97493.53;;;9.60;100.00
75008;BME280;63554;48.940;12.050;2023-08-08T03:31:06;97493.94;;;9.63;100.00
75008;BME280;63554;48.940;12.050;2023-08-08T03:35:10;97481.44;;;9.62;100.00
75008;BME280;63554;48.940;12.050;2023-08-08T03:39:13;97477.53;;;9.65;100.00
75008;BME280;63554;48.940;12.050;2023-08-08T03:43:15;97477.69;;;9.70;100.00
75008;BME280;63554;48.940;12.050;2023-08-08T03:47:18;97480.81;;;9.74;100.00
75008;BME280;63554;48.940;12.050;2023-08-08T03:51:22;97493.91;;;9.77;100.00
75008;BME280;63554;48.940;12.050;2023-08-08T03:55:25;97487.25;;;9.79;100.00
75008;BME280;63554;48.940;12.050;2023-08-08T03:59:28;97486.63;;;9.77;100.00
75008;BME280;63554;48.940;12.050;2023-08-08T04:03:31;97483.53;;;9.80;100.00
75008;BME280;63554;48.940;12.050;2023-08-08T04:07:38;97483.06;;;9.83;100.00
75008;BME280;63554;48.940;12.050;2023-08-08T04:11:40;97488.91;;;9.87;100.00
75008;BME280;63554;48.940;12.050;2023-08-08T04:15:44;97486.81;;;9.89;100.00
75008;BME280;63554;48.940;12.050;2023-08-08T04:19:48;97484.72;;;9.91;100.00
75008;BME280;63554;48.940;12.050;2023-08-08T04:23:52;97493.66;;;9.98;100.00
75008;BME280;63554;48.940;12.050;2023-08-08T04:27:58;97493.03;;;9.96;100.00
75008;BME280;63554;48.940;12.050;2023-08-08T04:32:05;97496.38;;;9.98;100.00
75008;BME280;63554;48.940;12.050;2023-08-08T04:36:08;97485.56;;;9.98;100.00
75008;BME280;63554;48.940;12.050;2023-08-08T04:40:12;97493.44;;;10.00;100.00
75008;BME280;63554;48.940;12.050;2023-08-08T04:44:15;97502.19;;;9.95;100.00
75008;BME280;63554;48.940;12.050;2023-08-08T04:48:18;97507.59;;;9.95;100.00
75008;BME280;63554;48.940;12.050;2023-08-08T04:52:20;97501.16;;;9.96;100.00
75008;BME280;63554;48.940;12.050;2023-08-08T04:56:25;97503.66;;;9.98;100.00
75008;BME280;63554;48.940;12.050;2023-08-08T05:00:30;97493.66;;;9.98;100.00
75008;BME280;63554;48.940;12.050;2023-08-08T05:04:33;97493.88;;;9.97;100.00
75008;BME280;63554;48.940;12.050;2023-08-08T05:08:36;97502.78;;;9.97;100.00
75008;BME280;63554;48.940;12.050;2023-08-08T05:12:40;97500.72;;;9.99;100.00
75008;BME280;63554;48.940;12.050;2023-08-08T05:16:43;97509.84;;;10.12;100.00
75008;BME280;63554;48.940;12.050;2023-08-08T05:20:46;97503.38;;;10.19;100.00
75008;BME280;63554;48.940;12.050;2023-08-08T05:24:48;97513.34;;;10.25;100.00
75008;BME280;63554;48.940;12.050;2023-08-08T05:28:52;97514.16;;;10.39;100.00
75008;BME280;63554;48.940;12.050;2023-08-08T05:32:55;97513.25;;;10.52;100.00
75008;BME280;63554;48.940;12.050;2023-08-08T05:36:58;97504.03;;;10.66;100.00
75008;BME280;63554;48.940;12.050;2023-08-08T05:41:16;97509.34;;;10.80;100.00
75008;BME280;63554;48.940;12.050;2023-08-08T05:45:20;97512.81;;;10.94;100.00
75008;BME280;63554;48.940;12.050;2023-08-08T05:49:23;97511.34;;;10.98;100.00
75008;BME280;63554;48.940;12.050;2023-08-08T05:53:26;97521.50;;;11.02;100.00
75008;BME280;63554;48.940;12.050;2023-08-08T05:57:28;97512.09;;;11.05;99.89
75008;BME280;63554;48.940;12.050;2023-08-08T06:01:33;97512.72;;;11.07;99.82
75008;BME280;63554;48.940;12.050;2023-08-08T06:05:36;97524.78;;;11.11;99.20
75008;BME280;63554;48.940;12.050;2023-08-08T06:09:40;97526.34;;;11.25;96.81
75008;BME280;63554;48.940;12.050;2023-08-08T06:13:42;97517.25;;;11.45;96.86
75008;BME280;63554;48.940;12.050;2023-08-08T06:17:46;97523.59;;;11.57;95.48
75008;BME280;63554;48.940;12.050;2023-08-08T06:21:49;97510.81;;;11.64;95.43
75008;BME280;63554;48.940;12.050;2023-08-08T06:25:52;97514.28;;;11.72;95.08
75008;BME280;63554;48.940;12.050;2023-08-08T06:29:55;97509.75;;;11.91;93.88
75008;BME280;63554;48.940;12.050;2023-08-08T06:33:59;97499.28;;;11.94;92.05
75008;BME280;63554;48.940;12.050;2023-08-08T06:38:02;97498.25;;;12.14;91.87
75008;BME280;63554;48.940;12.050;2023-08-08T06:42:04;97492.69;;;12.27;90.56
75008;BME280;63554;48.940;12.050;2023-08-08T06:46:07;97488.78;;;12.35;89.04
75008;BME280;63554;48.940;12.050;2023-08-08T06:50:11;97493.63;;;12.51;87.92
75008;BME280;63554;48.940;12.050;2023-08-08T06:54:14;97486.88;;;12.72;88.71
75008;BME280;63554;48.940;12.050;2023-08-08T06:58:17;97491.44;;;12.72;85.32
75008;BME280;63554;48.940;12.050;2023-08-08T07:02:19;97496.09;;;12.83;85.06
75008;BME280;63554;48.940;12.050;2023-08-08T07:06:24;97492.38;;;12.96;84.87
75008;BME280;63554;48.940;12.050;2023-08-08T07:10:27;97492.31;;;13.14;83.45
75008;BME280;63554;48.940;12.050;2023-08-08T07:14:31;97480.34;;;13.45;83.57
75008;BME280;63554;48.940;12.050;2023-08-08T07:18:34;97475.72;;;13.70;82.14
75008;BME280;63554;48.940;12.050;2023-08-08T07:22:38;97482.25;;;13.69;81.03
75008;BME280;63554;48.940;12.050;2023-08-08T07:26:41;97484.97;;;13.57;81.11
75008;BME280;63554;48.940;12.050;2023-08-08T07:30:44;97478.22;;;13.59;81.82
75008;BME280;63554;48.940;12.050;2023-08-08T07:34:47;97475.03;;;13.62;81.76
75008;BME280;63554;48.940;12.050;2023-08-08T07:38:51;97480.81;;;13.78;81.86
75008;BME280;63554;48.940;12.050;2023-08-08T07:42:54;97472.53;;;13.96;81.71
75008;BME280;63554;48.940;12.050;2023-08-08T07:46:56;97466.78;;;14.33;80.87
75008;BME280;63554;48.940;12.050;2023-08-08T07:50:59;97464.09;;;14.62;78.60
75008;BME280;63554;48.940;12.050;2023-08-08T07:55:04;97454.38;;;14.54;77.11
75008;BME280;63554;48.940;12.050;2023-08-08T07:59:07;97462.81;;;14.53;77.21
75008;BME280;63554;48.940;12.050;2023-08-08T08:03:11;97468.72;;;14.50;76.31
75008;BME280;63554;48.940;12.050;2023-08-08T08:07:14;97469.47;;;14.45;76.55
75008;BME280;63554;48.940;12.050;2023-08-08T08:11:18;97458.06;;;14.48;75.77
75008;BME280;63554;48.940;12.050;2023-08-08T08:15:21;97462.22;;;14.51;76.72
75008;BME280;63554;48.940;12.050;2023-08-08T08:19:24;97473.06;;;14.34;76.98
75008;BME280;63554;48.940;12.050;2023-08-08T08:23:27;97464.56;;;14.18;79.32
75008;BME280;63554;48.940;12.050;2023-08-08T08:27:31;97472.88;;;14.00;80.84
75008;BME280;63554;48.940;12.050;2023-08-08T08:31:33;97454.66;;;14.00;81.24
75008;BME280;63554;48.940;12.050;2023-08-08T08:35:38;97444.44;;;14.60;79.84
75008;BME280;63554;48.940;12.050;2023-08-08T08:39:41;97443.91;;;15.03;77.02
75008;BME280;63554;48.940;12.050;2023-08-08T08:43:46;97435.81;;;15.26;75.83
75008;BME280;63554;48.940;12.050;2023-08-08T08:47:53;97427.13;;;15.46;73.74
75008;BME280;63554;48.940;12.050;2023-08-08T08:51:59;97430.22;;;15.88;72.91
75008;BME280;63554;48.940;12.050;2023-08-08T08:56:03;97434.88;;;15.88;71.99
75008;BME280;63554;48.940;12.050;2023-08-08T09:00:09;97422.53;;;16.07;71.45
75008;BME280;63554;48.940;12.050;2023-08-08T09:04:14;97420.97;;;16.11;70.17
75008;BME280;63554;48.940;12.050;2023-08-08T09:08:18;97413.84;;;16.32;68.78
75008;BME280;63554;48.940;12.050;2023-08-08T09:12:21;97407.66;;;16.64;69.49
75008;BME280;63554;48.940;12.050;2023-08-08T09:16:27;97403.09;;;16.75;66.10
75008;BME280;63554;48.940;12.050;2023-08-08T09:20:29;97414.69;;;17.09;66.51
75008;BME280;63554;48.940;12.050;2023-08-08T09:24:32;97400.03;;;17.26;63.94
75008;BME280;63554;48.940;12.050;2023-08-08T09:28:35;97416.22;;;17.32;63.70
75008;BME280;63554;48.940;12.050;2023-08-08T09:32:39;97401.88;;;17.52;63.09
75008;BME280;63554;48.940;12.050;2023-08-08T09:36:44;97394.09;;;17.76;62.06
75008;BME280;63554;48.940;12.050;2023-08-08T09:40:47;97396.84;;;17.82;60.18
75008;BME280;63554;48.940;12.050;2023-08-08T09:44:50;97386.25;;;17.90;60.34
75008;BME280;63554;48.940;12.050;2023-08-08T09:48:55;97390.53;;;17.81;59.73
75008;BME280;63554;48.940;12.050;2023-08-08T09:52:58;97387.69;;;17.61;60.32
75008;BME280;63554;48.940;12.050;2023-08-08T09:57:03;97380.41;;;17.76;58.82
75008;BME280;63554;48.940;12.050;2023-08-08T10:01:06;97366.72;;;17.76;59.17
75008;BME280;63554;48.940;12.050;2023-08-08T10:05:11;97376.44;;;18.05;60.84
75008;BME280;63554;48.940;12.050;2023-08-08T10:09:15;97372.06;;;18.04;57.47
75008;BME280;63554;48.940;12.050;2023-08-08T10:13:19;97365.03;;;17.70;58.57
75008;BME280;63554;48.940;12.050;2023-08-08T10:17:23;97382.69;;;17.47;58.37
75008;BME280;63554;48.940;12.050;2023-08-08T10:21:28;97376.50;;;17.62;58.44
75008;BME280;63554;48.940;12.050;2023-08-08T10:25:34;97382.22;;;17.61;59.48
75008;BME280;63554;48.940;12.050;2023-08-08T10:29:38;97365.97;;;17.86;58.06
75008;BME280;63554;48.940;12.050;2023-08-08T10:33:42;97362.56;;;18.27;57.37
75008;BME280;63554;48.940;12.050;2023-08-08T10:37:53;97366.44;;;18.31;56.63
75008;BME280;63554;48.940;12.050;2023-08-08T10:42:00;97353.56;;;18.52;55.24
75008;BME280;63554;48.940;12.050;2023-08-08T10:46:04;97354.69;;;18.61;53.62
75008;BME280;63554;48.940;12.050;2023-08-08T10:50:15;97347.50;;;18.34;55.81
75008;BME280;63554;48.940;12.050;2023-08-08T10:54:24;97351.22;;;17.92;54.95
75008;BME280;63554;48.940;12.050;2023-08-08T10:58:36;97363.63;;;17.68;57.36
75008;BME280;63554;48.940;12.050;2023-08-08T11:02:40;97356.16;;;17.95;56.16
75008;BME280;63554;48.940;12.050;2023-08-08T11:06:43;97343.41;;;18.32;55.61
75008;BME280;63554;48.940;12.050;2023-08-08T11:10:51;97350.31;;;18.75;55.17
75008;BME280;63554;48.940;12.050;2023-08-08T11:14:55;97320.72;;;18.72;55.30
75008;BME280;63554;48.940;12.050;2023-08-08T11:18:58;97331.94;;;18.55;54.60
75008;BME280;63554;48.940;12.050;2023-08-08T11:23:03;97328.66;;;18.53;54.45
75008;BME280;63554;48.940;12.050;2023-08-08T11:27:08;97330.53;;;18.37;54.12
75008;BME280;63554;48.940;12.050;2023-08-08T11:31:11;97331.56;;;18.16;55.16
75008;BME280;63554;48.940;12.050;2023-08-08T11:35:16;97330.13;;;17.88;56.51
75008;BME280;63554;48.940;12.050;2023-08-08T11:39:20;97323.66;;;18.25;56.46
75008;BME280;63554;48.940;12.050;2023-08-08T11:43:24;97329.47;;;18.54;55.62
75008;BME280;63554;48.940;12.050;2023-08-08T11:47:28;97323.22;;;18.89;54.78
75008;BME280;63554;48.940;12.050;2023-08-08T11:51:33;97318.56;;;19.10;53.53
75008;BME280;63554;48.940;12.050;2023-08-08T11:55:36;97313.81;;;19.52;54.13
75008;BME280;63554;48.940;12.050;2023-08-08T11:59:41;97312.94;;;19.77;51.81
75008;BME280;63554;48.940;12.050;2023-08-08T12:03:45;97301.59;;;19.99;52.26
75008;BME280;63554;48.940;12.050;2023-08-08T12:07:49;97305.19;;;20.00;50.84
75008;BME280;63554;48.940;12.050;2023-08-08T12:11:52;97303.53;;;19.99;50.71
75008;BME280;63554;48.940;12.050;2023-08-08T12:15:57;97311.06;;;19.72;51.04
75008;BME280;63554;48.940;12.050;2023-08-08T12:20:07;97331.09;;;19.63;50.57
75008;BME280;63554;48.940;12.050;2023-08-08T12:24:10;97305.31;;;19.53;49.13
75008;BME280;63554;48.940;12.050;2023-08-08T12:28:13;97299.16;;;19.87;47.70
75008;BME280;63554;48.940;12.050;2023-08-08T12:32:18;97305.44;;;20.03;47.67
75008;BME280;63554;48.940;12.050;2023-08-08T12:36:21;97305.13;;;20.10;47.10
75008;BME280;63554;48.940;12.050;2023-08-08T12:40:24;97306.38;;;19.73;47.64
75008;BME280;63554;48.940;12.050;2023-08-08T12:44:27;97292.50;;;20.04;47.34
75008;BME280;63554;48.940;12.050;2023-08-08T12:48:31;97293.66;;;19.92;45.97
75008;BME280;63554;48.940;12.050;2023-08-08T12:52:34;97288.97;;;20.03;46.67
75008;BME280;63554;48.940;12.050;2023-08-08T12:56:37;97280.72;;;19.98;45.07
75008;BME280;63554;48.940;12.050;2023-08-08T13:00:40;97276.41;;;20.31;45.80
75008;BME280;63554;48.940;12.050;2023-08-08T13:04:44;97271.84;;;20.56;43.67
75008;BME280;63554;48.940;12.050;2023-08-08T13:08:47;97279.97;;;20.77;44.64
75008;BME280;63554;48.940;12.050;2023-08-08T13:12:50;97272.03;;;21.04;43.60
75008;BME280;63554;48.940;12.050;2023-08-08T13:16:52;97281.03;;;21.15;42.59
75008;BME280;63554;48.940;12.050;2023-08-08T13:20:56;97273.66;;;21.35;42.35
75008;BME280;63554;48.940;12.050;2023-08-08T13:25:00;97265.44;;;21.59;42.08
75008;BME280;63554;48.940;12.050;2023-08-08T13:29:03;97270.25;;;21.43;41.51
75008;BME280;63554;48.940;12.050;2023-08-08T13:33:05;97285.13;;;20.83;42.43
75008;BME280;63554;48.940;12.050;2023-08-08T13:37:09;97267.78;;;20.88;43.64
75008;BME280;63554;48.940;12.050;2023-08-08T13:41:12;97267.69;;;20.64;42.09
75008;BME280;63554;48.940;12.050;2023-08-08T13:45:15;97275.44;;;20.57;41.03
75008;BME280;63554;48.940;12.050;2023-08-08T13:49:17;97281.66;;;20.72;40.50
75008;BME280;63554;48.940;12.050;2023-08-08T13:53:22;97269.13;;;20.90;40.24
75008;BME280;63554;48.940;12.050;2023-08-08T13:57:24;97271.16;;;20.80;39.28
75008;BME280;63554;48.940;12.050;2023-08-08T14:01:28;97268.69;;;20.78;40.54
75008;BME280;63554;48.940;12.050;2023-08-08T14:05:31;97265.03;;;20.88;40.28
75008;BME280;63554;48.940;12.050;2023-08-08T14:09:35;97263.66;;;20.85;39.64
75008;BME280;63554;48.940;12.050;2023-08-08T14:13:38;97251.53;;;20.52;40.18
75008;BME280;63554;48.940;12.050;2023-08-08T14:17:42;97262.19;;;20.64;41.16
75008;BME280;63554;48.940;12.050;2023-08-08T14:21:46;97255.75;;;20.79;41.79
75008;BME280;63554;48.940;12.050;2023-08-08T14:25:50;97246.91;;;20.42;40.96
75008;BME280;63554;48.940;12.050;2023-08-08T14:29:52;97248.56;;;20.43;41.87
75008;BME280;63554;48.940;12.050;2023-08-08T14:33:55;97250.69;;;20.57;42.33
75008;BME280;63554;48.940;12.050;2023-08-08T14:37:58;97250.28;;;20.73;41.58
75008;BME280;63554;48.940;12.050;2023-08-08T14:42:03;97261.59;;;20.72;41.65
75008;BME280;63554;48.940;12.050;2023-08-08T14:46:06;97250.88;;;21.00;41.17
75008;BME280;63554;48.940;12.050;2023-08-08T14:50:09;97248.53;;;21.17;40.90
75008;BME280;63554;48.940;12.050;2023-08-08T14:54:13;97254.41;;;21.05;37.87
75008;BME280;63554;48.940;12.050;2023-08-08T14:58:17;97255.53;;;20.99;38.23
75008;BME280;63554;48.940;12.050;2023-08-08T15:02:20;97255.34;;;20.96;38.48
75008;BME280;63554;48.940;12.050;2023-08-08T15:06:23;97261.28;;;20.73;38.66
75008;BME280;63554;48.940;12.050;2023-08-08T15:10:26;97250.00;;;20.75;39.29
75008;BME280;63554;48.940;12.050;2023-08-08T15:14:30;97262.69;;;20.71;40.50
75008;BME280;63554;48.940;12.050;2023-08-08T15:18:32;97254.06;;;20.83;40.03
75008;BME280;63554;48.940;12.050;2023-08-08T15:22:35;97267.03;;;20.77;39.69
75008;BME280;63554;48.940;12.050;2023-08-08T15:26:38;97255.19;;;20.82;40.04
75008;BME280;63554;48.940;12.050;2023-08-08T15:30:42;97272.91;;;20.65;40.39
75008;BME280;63554;48.940;12.050;2023-08-08T15:34:45;97267.56;;;20.40;39.59
75008;BME280;63554;48.940;12.050;2023-08-08T15:38:47;97277.16;;;20.42;40.34
75008;BME280;63554;48.940;12.050;2023-08-08T15:42:50;97267.81;;;20.43;41.09
75008;BME280;63554;48.940;12.050;2023-08-08T15:46:54;97268.72;;;20.28;41.05
75008;BME280;63554;48.940;12.050;2023-08-08T15:50:57;97262.50;;;20.18;40.73
75008;BME280;63554;48.940;12.050;2023-08-08T15:55:00;97265.50;;;20.21;42.39
75008;BME280;63554;48.940;12.050;2023-08-08T15:59:03;97262.84;;;20.45;41.06
75008;BME280;63554;48.940;12.050;2023-08-08T16:03:07;97263.88;;;20.60;41.94
75008;BME280;63554;48.940;12.050;2023-08-08T16:07:10;97266.66;;;20.49;41.46
75008;BME280;63554;48.940;12.050;2023-08-08T16:11:14;97261.69;;;20.17;41.54
75008;BME280;63554;48.940;12.050;2023-08-08T16:15:17;97263.63;;;20.11;42.61
75008;BME280;63554;48.940;12.050;2023-08-08T16:19:21;97260.34;;;20.09;42.84
75008;BME280;63554;48.940;12.050;2023-08-08T16:23:23;97250.25;;;19.94;42.33
75008;BME280;63554;48.940;12.050;2023-08-08T16:27:26;97247.78;;;19.93;42.67
75008;BME280;63554;48.940;12.050;2023-08-08T16:31:29;97244.22;;;19.92;42.60
75008;BME280;63554;48.940;12.050;2023-08-08T16:35:35;97253.78;;;20.00;42.35
75008;BME280;63554;48.940;12.050;2023-08-08T16:39:38;97250.16;;;20.10;42.47
75008;BME280;63554;48.940;12.050;2023-08-08T16:43:41;97244.75;;;20.00;42.34
75008;BME280;63554;48.940;12.050;2023-08-08T16:47:44;97254.06;;;19.99;43.17
75008;BME280;63554;48.940;12.050;2023-08-08T16:51:49;97252.50;;;19.82;43.44
75008;BME280;63554;48.940;12.050;2023-08-08T16:55:51;97257.22;;;19.61;42.39
75008;BME280;63554;48.940;12.050;2023-08-08T16:59:54;97257.56;;;19.49;43.69
75008;BME280;63554;48.940;12.050;2023-08-08T17:03:57;97259.25;;;19.35;43.68
75008;BME280;63554;48.940;12.050;2023-08-08T17:08:01;97267.50;;;19.25;44.04
75008;BME280;63554;48.940;12.050;2023-08-08T17:12:04;97265.31;;;19.16;44.77
75008;BME280;63554;48.940;12.050;2023-08-08T17:16:08;97269.19;;;19.05;44.21
75008;BME280;63554;48.940;12.050;2023-08-08T17:20:11;97266.19;;;18.96;44.20
75008;BME280;63554;48.940;12.050;2023-08-08T17:24:15;97269.75;;;18.92;44.24
75008;BME280;63554;48.940;12.050;2023-08-08T17:28:23;97274.41;;;18.81;43.84
75008;BME280;63554;48.940;12.050;2023-08-08T17:32:26;97273.84;;;18.74;44.20
75008;BME280;63554;48.940;12.050;2023-08-08T17:36:28;97273.56;;;18.65;44.73
75008;BME280;63554;48.940;12.050;2023-08-08T17:40:32;97279.03;;;18.60;44.40
75008;BME280;63554;48.940;12.050;2023-08-08T17:44:35;97290.28;;;18.53;45.06
75008;BME280;63554;48.940;12.050;2023-08-08T17:48:38;97285.06;;;18.47;45.64
75008;BME280;63554;48.940;12.050;2023-08-08T17:52:41;97287.25;;;18.45;46.37
75008;BME280;63554;48.940;12.050;2023-08-08T17:56:45;97285.06;;;18.42;46.50
75008;BME280;63554;48.940;12.050;2023-08-08T18:00:48;97298.22;;;18.40;46.75
75008;BME280;63554;48.940;12.050;2023-08-08T18:04:51;97285.03;;;18.36;47.41
75008;BME280;63554;48.940;12.050;2023-08-08T18:08:54;97292.44;;;18.31;47.97
75008;BME280;63554;48.940;12.050;2023-08-08T18:12:58;97287.75;;;18.26;47.71
75008;BME280;63554;48.940;12.050;2023-08-08T18:17:01;97290.22;;;18.23;48.49
75008;BME280;63554;48.940;12.050;2023-08-08T18:21:03;97290.50;;;18.21;49.38
75008;BME280;63554;48.940;12.050;2023-08-08T18:25:07;97291.31;;;18.16;50.99
75008;BME280;63554;48.940;12.050;2023-08-08T18:29:12;97293.19;;;18.11;52.34
75008;BME280;63554;48.940;12.050;2023-08-08T18:33:15;97292.91;;;18.02;52.11
75008;BME280;63554;48.940;12.050;2023-08-08T18:37:18;97309.88;;;17.94;54.33
75008;BME280;63554;48.940;12.050;2023-08-08T18:41:21;97312.03;;;17.87;54.97
75008;BME280;63554;48.940;12.050;2023-08-08T18:45:25;97315.25;;;17.78;53.52
75008;BME280;63554;48.940;12.050;2023-08-08T18:49:28;97313.28;;;17.69;53.83
75008;BME280;63554;48.940;12.050;2023-08-08T18:53:31;97321.22;;;17.65;55.48
75008;BME280;63554;48.940;12.050;2023-08-08T18:57:34;97331.84;;;17.62;55.48
75008;BME280;63554;48.940;12.050;2023-08-08T19:01:38;97328.31;;;17.61;56.00
75008;BME280;63554;48.940;12.050;2023-08-08T19:05:41;97335.69;;;17.61;58.04
75008;BME280;63554;48.940;12.050;2023-08-08T19:09:43;97332.09;;;17.55;58.13
75008;BME280;63554;48.940;12.050;2023-08-08T19:13:46;97343.81;;;17.45;57.89
75008;BME280;63554;48.940;12.050;2023-08-08T19:17:50;97349.22;;;17.35;59.02
75008;BME280;63554;48.940;12.050;2023-08-08T19:21:57;97338.19;;;17.25;59.72
75008;BME280;63554;48.940;12.050;2023-08-08T19:26:00;97336.78;;;17.17;60.63
75008;BME280;63554;48.940;12.050;2023-08-08T19:30:04;97335.94;;;17.11;62.21
75008;BME280;63554;48.940;12.050;2023-08-08T19:34:09;97332.34;;;17.06;62.68
75008;BME280;63554;48.940;12.050;2023-08-08T19:38:12;97340.75;;;16.99;63.49
75008;BME280;63554;48.940;12.050;2023-08-08T19:42:15;97334.97;;;16.95;64.39
75008;BME280;63554;48.940;12.050;2023-08-08T19:46:18;97335.34;;;16.77;64.27
75008;BME280;63554;48.940;12.050;2023-08-08T19:50:22;97330.00;;;16.60;65.66
75008;BME280;63554;48.940;12.050;2023-08-08T19:54:24;97340.31;;;16.53;65.78
75008;BME280;63554;48.940;12.050;2023-08-08T19:58:27;97335.84;;;16.41;65.23
75008;BME280;63554;48.940;12.050;2023-08-08T20:02:30;97337.38;;;16.32;66.56
75008;BME280;63554;48.940;12.050;2023-08-08T20:06:34;97339.50;;;16.25;66.74
75008;BME280;63554;48.940;12.050;2023-08-08T20:10:37;97337.03;;;16.24;66.45
75008;BME280;63554;48.940;12.050;2023-08-08T20:14:39;97347.41;;;16.27;66.62
75008;BME280;63554;48.940;12.050;2023-08-08T20:18:43;97347.41;;;16.27;66.12
75008;BME280;63554;48.940;12.050;2023-08-08T20:22:47;97348.50;;;16.26;66.48
75008;BME280;63554;48.940;12.050;2023-08-08T20:26:50;97347.69;;;16.25;65.44
75008;BME280;63554;48.940;12.050;2023-08-08T20:30:53;97353.19;;;16.30;67.10
75008;BME280;63554;48.940;12.050;2023-08-08T20:34:55;97341.69;;;16.28;67.24
75008;BME280;63554;48.940;12.050;2023-08-08T20:39:00;97352.94;;;16.32;69.34
75008;BME280;63554;48.940;12.050;2023-08-08T20:43:03;97340.31;;;16.26;68.88
75008;BME280;63554;48.940;12.050;2023-08-08T20:47:06;97337.78;;;16.19;68.94
75008;BME280;63554;48.940;12.050;2023-08-08T20:51:09;97342.94;;;16.15;69.93
75008;BME280;63554;48.940;12.050;2023-08-08T20:55:13;97342.88;;;16.10;68.95
75008;BME280;63554;48.940;12.050;2023-08-08T20:59:16;97342.81;;;16.05;69.48
75008;BME280;63554;48.940;12.050;2023-08-08T21:03:18;97347.97;;;16.01;70.08
75008;BME280;63554;48.940;12.050;2023-08-08T21:07:21;97342.13;;;15.93;70.49
75008;BME280;63554;48.940;12.050;2023-08-08T21:11:25;97345.94;;;15.92;70.86
75008;BME280;63554;48.940;12.050;2023-08-08T21:15:28;97339.03;;;15.84;71.37